createdAt,value
2023-05-28T00:00:12.862Z,101594.03
2023-05-28T00:02:40.505Z,101593.69
2023-05-28T00:05:07.597Z,101593.03
2023-05-28T00:07:34.044Z,101595.44
2023-05-28T00:10:00.726Z,101596.44
2023-05-28T00:12:27.269Z,101605.03
2023-05-28T00:14:53.951Z,101606.16
2023-05-28T00:17:20.420Z,101611.44
2023-05-28T00:19:46.851Z,101616.69
2023-05-28T00:22:13.728Z,101602.97
2023-05-28T00:24:40.228Z,101607.00
2023-05-28T00:27:07.344Z,101604.94
2023-05-28T00:29:34.099Z,101601.53
2023-05-28T00:32:00.686Z,101603.31
2023-05-28T00:34:27.624Z,101597.72
2023-05-28T00:36:54.704Z,101602.28
2023-05-28T00:39:21.618Z,101602.03
2023-05-28T00:41:48.047Z,101596.00
2023-05-28T00:44:14.639Z,101590.28
2023-05-28T00:46:43.257Z,101594.47
2023-05-28T00:49:11.790Z,101586.81
2023-05-28T00:51:39.406Z,101585.91
2023-05-28T00:54:06.520Z,101582.66
2023-05-28T00:56:33.044Z,101574.69
2023-05-28T00:59:02.985Z,101578.41
2023-05-28T01:01:30.669Z,101574.03
2023-05-28T01:03:57.434Z,101583.22
2023-05-28T01:06:24.106Z,101570.84
2023-05-28T01:08:52.059Z,101582.56
2023-05-28T01:11:20.524Z,101580.00
2023-05-28T01:13:48.548Z,101580.09
2023-05-28T01:16:15.569Z,101579.81
2023-05-28T01:18:45.626Z,101576.44
2023-05-28T01:21:13.048Z,101577.91
2023-05-28T01:23:45.004Z,101570.19
2023-05-28T01:26:17.816Z,101570.97
2023-05-28T01:28:48.169Z,101566.19
2023-05-28T01:31:15.151Z,101565.53
2023-05-28T01:33:42.847Z,101577.25
2023-05-28T01:36:24.150Z,101563.41
2023-05-28T01:38:53.898Z,101566.81
2023-05-28T01:41:21.329Z,101556.25
2023-05-28T01:43:48.226Z,101548.84
2023-05-28T01:46:15.136Z,101553.19
2023-05-28T01:48:42.028Z,101548.84
2023-05-28T01:51:08.598Z,101554.81
2023-05-28T01:53:35.121Z,101550.63
2023-05-28T01:56:02.614Z,101550.00
2023-05-28T01:58:30.205Z,101552.38
2023-05-28T02:01:10.168Z,101547.72
2023-05-28T02:03:36.640Z,101541.59
2023-05-28T02:06:03.223Z,101550.78
2023-05-28T02:08:29.714Z,101546.28
2023-05-28T02:10:56.429Z,101547.28
2023-05-28T02:13:23.056Z,101550.78
2023-05-28T02:15:49.654Z,101536.94
2023-05-28T02:18:16.131Z,101538.75
2023-05-28T02:20:43.794Z,101532.94
2023-05-28T02:23:10.484Z,101529.56
2023-05-28T02:25:36.994Z,101534.53
2023-05-28T02:28:04.708Z,101546.78
2023-05-28T02:30:31.472Z,101543.22
2023-05-28T02:32:58.030Z,101547.84
2023-05-28T02:35:24.676Z,101545.34
2023-05-28T02:37:51.382Z,101548.03
2023-05-28T02:40:17.983Z,101552.53
2023-05-28T02:42:45.814Z,101548.34
2023-05-28T02:45:14.277Z,101557.50
2023-05-28T02:47:40.871Z,101547.03
2023-05-28T02:50:07.942Z,101552.84
2023-05-28T02:52:34.432Z,101550.09
2023-05-28T02:55:00.869Z,101548.03
2023-05-28T02:57:27.453Z,101549.28
2023-05-28T02:59:53.884Z,101547.88
2023-05-28T03:02:20.359Z,101547.44
2023-05-28T03:04:46.842Z,101542.78
2023-05-28T03:07:13.289Z,101542.38
2023-05-28T03:09:39.800Z,101542.06
2023-05-28T03:12:06.920Z,101540.00
2023-05-28T03:14:33.466Z,101544.16
2023-05-28T03:16:59.918Z,101541.47
2023-05-28T03:19:26.715Z,101538.69
2023-05-28T03:21:53.178Z,101542.41
2023-05-28T03:24:19.663Z,101539.06
2023-05-28T03:26:46.138Z,101547.72
2023-05-28T03:29:12.639Z,101548.22
2023-05-28T03:31:47.350Z,101545.16
2023-05-28T03:34:14.041Z,101552.72
2023-05-28T03:36:43.283Z,101555.28
2023-05-28T03:39:10.567Z,101553.69
2023-05-28T03:41:38.110Z,101552.88
2023-05-28T03:44:06.288Z,101558.50
2023-05-28T03:46:32.890Z,101560.50
2023-05-28T03:48:59.719Z,101558.22
2023-05-28T03:51:28.169Z,101557.84
2023-05-28T03:53:55.446Z,101558.88
2023-05-28T03:56:22.076Z,101561.25
2023-05-28T03:58:48.609Z,101559.66
2023-05-28T04:01:15.141Z,101556.28
2023-05-28T04:03:41.787Z,101553.72
2023-05-28T04:06:08.465Z,101551.84
2023-05-28T04:08:35.316Z,101546.81
2023-05-28T04:11:01.870Z,101549.88
2023-05-28T04:13:28.584Z,101550.63
2023-05-28T04:15:55.216Z,101554.44
2023-05-28T04:18:21.767Z,101559.25
2023-05-28T04:20:48.367Z,101555.06
2023-05-28T04:23:15.052Z,101560.69
2023-05-28T04:25:42.107Z,101553.56
2023-05-28T04:28:08.626Z,101550.44
2023-05-28T04:30:35.096Z,101554.25
2023-05-28T04:33:01.565Z,101545.84
2023-05-28T04:35:28.053Z,101561.78
2023-05-28T04:37:54.492Z,101560.09
2023-05-28T04:40:22.189Z,101565.72
2023-05-28T04:42:48.764Z,101560.16
2023-05-28T04:45:15.472Z,101571.19
2023-05-28T04:47:42.643Z,101561.28
2023-05-28T04:50:10.592Z,101555.13
2023-05-28T04:52:37.075Z,101555.22
2023-05-28T04:55:07.412Z,101557.44
2023-05-28T04:57:34.129Z,101554.25
2023-05-28T05:00:00.741Z,101561.63
2023-05-28T05:02:27.207Z,101564.50
2023-05-28T05:04:53.774Z,101564.56
2023-05-28T05:07:21.877Z,101567.81
2023-05-28T05:09:48.410Z,101572.16
2023-05-28T05:12:14.922Z,101571.25
2023-05-28T05:14:41.503Z,101575.63
2023-05-28T05:17:09.736Z,101567.25
2023-05-28T05:19:36.536Z,101565.66
2023-05-28T05:22:05.897Z,101571.47
2023-05-28T05:24:32.824Z,101576.38
2023-05-28T05:26:59.308Z,101580.72
2023-05-28T05:29:25.950Z,101583.28
2023-05-28T05:31:52.485Z,101583.81
2023-05-28T05:34:18.989Z,101574.19
2023-05-28T05:36:45.626Z,101580.59
2023-05-28T05:39:12.125Z,101571.97
2023-05-28T05:41:38.567Z,101582.97
2023-05-28T05:44:05.091Z,101573.31
2023-05-28T05:46:31.585Z,101578.56
2023-05-28T05:48:58.136Z,101580.28
2023-05-28T05:51:24.605Z,101580.47
2023-05-28T05:53:51.120Z,101576.91
2023-05-28T05:56:17.634Z,101582.63
2023-05-28T05:58:44.167Z,101588.88
2023-05-28T06:01:11.145Z,101592.97
2023-05-28T06:03:37.764Z,101598.69
2023-05-28T06:06:04.405Z,101604.75
2023-05-28T06:08:30.978Z,101598.63
2023-05-28T06:10:57.493Z,101587.38
2023-05-28T06:13:24.178Z,101592.34
2023-05-28T06:15:50.658Z,101592.19
2023-05-28T06:18:17.535Z,101588.53
2023-05-28T06:20:44.241Z,101587.13
2023-05-28T06:23:11.188Z,101593.69
2023-05-28T06:25:38.156Z,101587.91
2023-05-28T06:28:05.296Z,101585.41
2023-05-28T06:30:31.817Z,101595.91
2023-05-28T06:32:58.398Z,101590.00
2023-05-28T06:35:24.932Z,101593.22
2023-05-28T06:37:51.423Z,101591.91
2023-05-28T06:40:17.943Z,101594.16
2023-05-28T06:42:44.445Z,101592.28
2023-05-28T06:45:12.065Z,101598.97
2023-05-28T06:47:38.638Z,101595.13
2023-05-28T06:50:05.382Z,101595.47
2023-05-28T06:52:31.809Z,101600.88
2023-05-28T06:54:58.299Z,101594.19
2023-05-28T06:57:24.807Z,101593.19
2023-05-28T06:59:51.341Z,101601.25
2023-05-28T07:02:17.898Z,101609.63
2023-05-28T07:04:44.653Z,101606.63
2023-05-28T07:07:11.505Z,101607.34
2023-05-28T07:09:38.084Z,101616.72
2023-05-28T07:12:04.678Z,101619.78
2023-05-28T07:14:31.104Z,101623.03
2023-05-28T07:16:57.640Z,101627.81
2023-05-28T07:19:24.129Z,101629.81
2023-05-28T07:21:50.588Z,101632.53
2023-05-28T07:24:17.065Z,101638.03
2023-05-28T07:26:43.612Z,101637.53
2023-05-28T07:29:10.090Z,101644.16
2023-05-28T07:31:39.390Z,101649.03
2023-05-28T07:34:06.798Z,101640.28
2023-05-28T07:36:33.219Z,101649.63
2023-05-28T07:38:59.689Z,101653.06
2023-05-28T07:41:26.466Z,101644.44
2023-05-28T07:43:52.901Z,101651.25
2023-05-28T07:46:19.442Z,101649.53
2023-05-28T07:48:46.545Z,101647.25
2023-05-28T07:51:12.979Z,101646.78
2023-05-28T07:53:39.488Z,101648.09
2023-05-28T07:56:06.414Z,101643.84
2023-05-28T07:58:32.862Z,101655.72
2023-05-28T08:00:59.359Z,101633.78
2023-05-28T08:03:28.593Z,101633.19
2023-05-28T08:05:56.172Z,101636.47
2023-05-28T08:08:22.796Z,101634.63
2023-05-28T08:10:49.268Z,101631.50
2023-05-28T08:13:15.722Z,101627.59
2023-05-28T08:15:42.302Z,101628.75
2023-05-28T08:18:08.780Z,101629.25
2023-05-28T08:20:36.398Z,101622.09
2023-05-28T08:23:03.564Z,101622.91
2023-05-28T08:25:30.045Z,101622.03
2023-05-28T08:27:56.472Z,101615.19
2023-05-28T08:30:22.932Z,101614.84
2023-05-28T08:32:49.546Z,101617.25
2023-05-28T08:35:16.548Z,101614.47
2023-05-28T08:37:43.035Z,101602.91
2023-05-28T08:40:10.402Z,101610.09
2023-05-28T08:42:37.193Z,101610.94
2023-05-28T08:45:04.341Z,101612.84
2023-05-28T08:47:35.173Z,101612.47
2023-05-28T08:50:07.181Z,101610.06
2023-05-28T08:52:34.822Z,101597.31
2023-05-28T08:55:02.431Z,101600.38
2023-05-28T08:57:30.767Z,101603.97
2023-05-28T09:00:00.869Z,101603.66
2023-05-28T09:02:27.929Z,101603.16
2023-05-28T09:04:57.514Z,101598.84
2023-05-28T09:07:32.784Z,101605.97
2023-05-28T09:10:00.973Z,101614.56
2023-05-28T09:12:33.675Z,101617.97
2023-05-28T09:15:01.394Z,101624.88
2023-05-28T09:17:47.072Z,101626.97
2023-05-28T09:20:14.432Z,101629.47
2023-05-28T09:22:41.304Z,101617.97
2023-05-28T09:25:08.546Z,101622.75
2023-05-28T09:27:36.259Z,101628.34
2023-05-28T09:30:08.346Z,101628.34
2023-05-28T09:32:36.135Z,101618.81
2023-05-28T09:35:06.341Z,101618.03
2023-05-28T09:37:32.903Z,101619.63
2023-05-28T09:40:05.075Z,101618.03
2023-05-28T09:42:42.837Z,101619.63
2023-05-28T09:45:10.747Z,101620.78
2023-05-28T09:47:44.708Z,101612.06
2023-05-28T09:50:12.311Z,101621.97
2023-05-28T09:52:39.882Z,101619.97
2023-05-28T09:55:08.310Z,101599.75
2023-05-28T09:57:37.725Z,101584.56
2023-05-28T10:00:13.794Z,101603.72
2023-05-28T10:02:51.753Z,101602.09
2023-05-28T10:05:21.031Z,101601.72
2023-05-28T10:07:52.579Z,101606.50
2023-05-28T10:10:21.432Z,101601.72
2023-05-28T10:12:50.806Z,101600.53
2023-05-28T10:15:18.226Z,101602.91
2023-05-28T10:17:45.151Z,101592.53
2023-05-28T10:20:12.707Z,101587.38
2023-05-28T10:22:40.704Z,101577.44
2023-05-28T10:25:09.144Z,101569.47
2023-05-28T10:27:38.287Z,101564.69
2023-05-28T10:30:05.872Z,101561.50
2023-05-28T10:32:42.579Z,101561.47
2023-05-28T10:35:13.347Z,101559.50
2023-05-28T10:37:40.447Z,101559.06
2023-05-28T10:40:11.391Z,101556.63
2023-05-28T10:42:44.103Z,101569.03
2023-05-28T10:45:11.533Z,101555.44
2023-05-28T10:47:42.542Z,101563.06
2023-05-28T10:50:18.676Z,101559.81
2023-05-28T10:53:05.103Z,101546.28
2023-05-28T10:55:50.854Z,101551.84
2023-05-28T10:58:26.785Z,101561.38
2023-05-28T11:00:54.187Z,101553.91
2023-05-28T11:03:43.188Z,101545.94
2023-05-28T11:06:15.103Z,101546.38
2023-05-28T11:08:42.824Z,101550.75
2023-05-28T11:11:13.668Z,101554.34
2023-05-28T11:13:49.937Z,101551.16
2023-05-28T11:16:18.504Z,101553.56
2023-05-28T11:19:02.449Z,101554.28
2023-05-28T11:21:28.971Z,101565.38
2023-05-28T11:24:06.125Z,101556.63
2023-05-28T11:26:33.954Z,101555.34
2023-05-28T11:29:01.940Z,101562.47
2023-05-28T11:31:29.243Z,101562.84
2023-05-28T11:33:57.135Z,101556.03
2023-05-28T11:36:23.622Z,101551.25
2023-05-28T11:39:04.888Z,101553.91
2023-05-28T11:41:32.235Z,101547.50
2023-05-28T11:43:59.071Z,101549.13
2023-05-28T11:46:26.121Z,101547.06
2023-05-28T11:48:52.709Z,101544.25
2023-05-28T11:51:22.522Z,101539.94
2023-05-28T11:53:49.156Z,101522.88
2023-05-28T11:56:15.744Z,101534.47
2023-05-28T11:58:47.002Z,101540.84
2023-05-28T12:01:15.832Z,101519.53
2023-05-28T12:03:42.928Z,101536.94
2023-05-28T12:06:09.482Z,101534.56
2023-05-28T12:08:39.443Z,101535.69
2023-05-28T12:11:07.647Z,101525.44
2023-05-28T12:13:35.540Z,101522.56
2023-05-28T12:16:12.617Z,101514.38
2023-05-28T12:18:43.254Z,101504.81
2023-05-28T12:21:20.054Z,101503.59
2023-05-28T12:23:47.611Z,101500.47
2023-05-28T12:26:16.099Z,101506.13
2023-05-28T12:28:42.963Z,101496.59
2023-05-28T12:31:09.992Z,101493.78
2023-05-28T12:33:37.075Z,101493.78
2023-05-28T12:36:03.899Z,101487.44
2023-05-28T12:38:30.492Z,101485.88
2023-05-28T12:40:57.418Z,101486.28
2023-05-28T12:43:24.212Z,101472.78
2023-05-28T12:45:51.033Z,101478.34
2023-05-28T12:48:17.591Z,101480.31
2023-05-28T12:50:44.364Z,101474.72
2023-05-28T12:53:10.893Z,101481.47
2023-05-28T12:55:37.567Z,101473.91
2023-05-28T12:58:04.164Z,101477.47
2023-05-28T13:00:31.096Z,101471.47
2023-05-28T13:02:57.723Z,101452.06
2023-05-28T13:05:24.379Z,101452.84
2023-05-28T13:07:50.872Z,101449.69
2023-05-28T13:10:17.732Z,101456.44
2023-05-28T13:12:44.273Z,101450.88
2023-05-28T13:15:11.560Z,101455.91
2023-05-28T13:17:38.308Z,101464.97
2023-05-28T13:20:11.296Z,101463.28
2023-05-28T13:22:38.395Z,101453.22
2023-05-28T13:25:05.562Z,101453.44
2023-05-28T13:27:32.104Z,101458.97
2023-05-28T13:29:59.247Z,101449.72
2023-05-28T13:32:26.089Z,101453.94
2023-05-28T13:34:53.218Z,101450.25
2023-05-28T13:37:19.772Z,101441.03
2023-05-28T13:39:47.065Z,101444.13
2023-05-28T13:42:13.674Z,101448.44
2023-05-28T13:44:40.672Z,101445.97
2023-05-28T13:47:07.826Z,101443.19
2023-05-28T13:49:34.427Z,101437.91
2023-05-28T13:52:00.991Z,101438.69
2023-05-28T13:54:27.629Z,101439.50
2023-05-28T13:56:54.246Z,101425.66
2023-05-28T13:59:20.864Z,101419.59
2023-05-28T14:01:47.942Z,101430.72
2023-05-28T14:04:14.612Z,101414.00
2023-05-28T14:06:41.162Z,101413.56
2023-05-28T14:09:07.580Z,101413.97
2023-05-28T14:12:01.554Z,101404.03
2023-05-28T14:14:20.480Z,101410.44
2023-05-28T14:16:47.048Z,101402.69
2023-05-28T14:19:13.558Z,101404.59
2023-05-28T14:21:40.075Z,101409.69
2023-05-28T14:24:06.875Z,101407.00
2023-05-28T14:26:33.307Z,101402.00
2023-05-28T14:28:59.822Z,101394.09
2023-05-28T14:31:26.402Z,101395.78
2023-05-28T14:33:53.175Z,101397.72
2023-05-28T14:36:19.896Z,101394.97
2023-05-28T14:38:46.630Z,101392.16
2023-05-28T14:41:13.101Z,101386.28
2023-05-28T14:43:39.608Z,101395.78
2023-05-28T14:46:06.287Z,101378.53
2023-05-28T14:48:32.878Z,101384.41
2023-05-28T14:50:59.452Z,101383.16
2023-05-28T14:53:25.969Z,101381.97
2023-05-28T14:55:52.830Z,101381.59
2023-05-28T14:58:19.776Z,101374.44
2023-05-28T15:00:46.272Z,101375.22
2023-05-28T15:03:12.799Z,101365.28
2023-05-28T15:05:39.322Z,101377.25
2023-05-28T15:08:05.753Z,101364.59
2023-05-28T15:10:32.225Z,101366.56
2023-05-28T15:12:58.740Z,101357.03
2023-05-28T15:15:26.695Z,101351.22
2023-05-28T15:17:55.528Z,101355.50
2023-05-28T15:20:22.383Z,101360.97
2023-05-28T15:22:49.077Z,101360.81
2023-05-28T15:25:17.593Z,101365.31
2023-05-28T15:27:44.155Z,101367.44
2023-05-28T15:30:11.096Z,101366.88
2023-05-28T15:32:38.919Z,101377.41
2023-05-28T15:35:06.148Z,101384.00
2023-05-28T15:37:32.751Z,101376.31
2023-05-28T15:40:00.418Z,101379.66
2023-05-28T15:42:27.308Z,101377.50
2023-05-28T15:44:53.923Z,101372.28
2023-05-28T15:47:20.437Z,101374.72
2023-05-28T15:49:47.323Z,101383.38
2023-05-28T15:52:13.824Z,101382.88
2023-05-28T15:54:40.635Z,101371.75
2023-05-28T15:57:08.761Z,101372.53
2023-05-28T15:59:35.722Z,101368.09
2023-05-28T16:02:03.917Z,101361.47
2023-05-28T16:04:31.455Z,101366.38
2023-05-28T16:06:58.063Z,101355.25
2023-05-28T16:09:24.801Z,101346.72
2023-05-28T16:11:54.418Z,101353.94
2023-05-28T16:14:21.202Z,101352.44
2023-05-28T16:16:52.349Z,101350.41
2023-05-28T16:19:18.984Z,101349.66
2023-05-28T16:21:45.818Z,101350.19
2023-05-28T16:24:13.348Z,101337.16
2023-05-28T16:26:40.029Z,101349.56
2023-05-28T16:29:07.248Z,101333.13
2023-05-28T16:31:34.131Z,101343.38
2023-05-28T16:34:00.899Z,101335.00
2023-05-28T16:36:27.647Z,101323.34
2023-05-28T16:38:54.779Z,101331.66
2023-05-28T16:41:22.865Z,101329.06
2023-05-28T16:43:50.304Z,101334.13
2023-05-28T16:46:17.613Z,101328.34
2023-05-28T16:48:45.650Z,101326.25
2023-05-28T16:51:12.374Z,101327.53
2023-05-28T16:53:39.524Z,101322.28
2023-05-28T16:56:06.637Z,101329.84
2023-05-28T16:58:33.323Z,101324.50
2023-05-28T17:00:59.856Z,101305.59
2023-05-28T17:03:26.449Z,101327.00
2023-05-28T17:05:53.194Z,101317.50
2023-05-28T17:08:21.375Z,101324.41
2023-05-28T17:10:48.621Z,101327.34
2023-05-28T17:13:15.121Z,101322.97
2023-05-28T17:15:41.632Z,101311.88
2023-05-28T17:18:08.159Z,101321.78
2023-05-28T17:20:37.864Z,101317.88
2023-05-28T17:23:04.459Z,101325.81
2023-05-28T17:25:30.870Z,101342.31
2023-05-28T17:27:57.350Z,101338.97
2023-05-28T17:30:23.875Z,101336.72
2023-05-28T17:32:50.441Z,101341.69
2023-05-28T17:35:17.040Z,101353.31
2023-05-28T17:37:43.524Z,101354.59
2023-05-28T17:40:10.518Z,101359.09
2023-05-28T17:42:37.002Z,101352.16
2023-05-28T17:45:03.801Z,101355.22
2023-05-28T17:47:30.314Z,101367.25
2023-05-28T17:49:56.980Z,101365.00
2023-05-28T17:52:23.430Z,101359.81
2023-05-28T17:54:49.888Z,101363.38
2023-05-28T17:57:16.630Z,101379.50
2023-05-28T17:59:43.401Z,101369.28
2023-05-28T18:02:10.100Z,101370.59
2023-05-28T18:04:36.832Z,101375.41
2023-05-28T18:07:03.631Z,101374.31
2023-05-28T18:09:30.087Z,101374.13
2023-05-28T18:11:56.626Z,101382.56
2023-05-28T18:14:23.647Z,101380.72
2023-05-28T18:16:50.157Z,101376.84
2023-05-28T18:19:21.587Z,101372.09
2023-05-28T18:21:48.211Z,101392.41
2023-05-28T18:24:14.691Z,101382.81
2023-05-28T18:26:41.589Z,101388.88
2023-05-28T18:29:08.075Z,101377.44
2023-05-28T18:31:34.725Z,101386.59
2023-05-28T18:34:03.814Z,101382.34
2023-05-28T18:36:31.871Z,101397.84
2023-05-28T18:38:58.419Z,101407.69
2023-05-28T18:41:24.958Z,101395.47
2023-05-28T18:43:51.429Z,101411.69
2023-05-28T18:46:17.945Z,101404.13
2023-05-28T18:48:44.504Z,101415.31
2023-05-28T18:51:11.387Z,101401.44
2023-05-28T18:53:37.888Z,101405.88
2023-05-28T18:56:04.388Z,101396.03
2023-05-28T18:58:30.903Z,101398.06
2023-05-28T19:00:57.443Z,101400.84
2023-05-28T19:03:24.076Z,101398.44
2023-05-28T19:05:50.704Z,101404.44
2023-05-28T19:08:17.295Z,101420.31
2023-05-28T19:10:43.807Z,101405.19
2023-05-28T19:13:10.570Z,101407.97
2023-05-28T19:15:37.151Z,101397.63
2023-05-28T19:18:03.958Z,101408.34
2023-05-28T19:20:30.592Z,101417.06
2023-05-28T19:22:57.131Z,101422.28
2023-05-28T19:25:23.599Z,101420.25
2023-05-28T19:27:50.143Z,101426.97
2023-05-28T19:30:16.717Z,101446.91
2023-05-28T19:32:43.325Z,101442.94
2023-05-28T19:35:09.878Z,101446.91
2023-05-28T19:37:36.998Z,101450.16
2023-05-28T19:40:04.654Z,101452.50
2023-05-28T19:42:31.186Z,101440.13
2023-05-28T19:44:57.836Z,101457.28
2023-05-28T19:47:24.694Z,101464.44
2023-05-28T19:49:51.616Z,101473.22
2023-05-28T19:52:18.268Z,101481.56
2023-05-28T19:54:46.552Z,101477.16
2023-05-28T19:57:14.164Z,101481.16
2023-05-28T19:59:40.678Z,101473.16
2023-05-28T20:02:07.882Z,101471.19
2023-05-28T20:04:34.474Z,101471.91
2023-05-28T20:07:01.327Z,101464.31
2023-05-28T20:09:27.869Z,101479.38
2023-05-28T20:11:54.340Z,101469.72
2023-05-28T20:14:20.916Z,101459.72
2023-05-28T20:16:47.737Z,101466.09
2023-05-28T20:19:14.845Z,101473.94
2023-05-28T20:21:41.447Z,101475.06
2023-05-28T20:24:08.395Z,101475.88
2023-05-28T20:26:34.906Z,101480.66
2023-05-28T20:29:01.367Z,101471.84
2023-05-28T20:31:27.900Z,101468.47
2023-05-28T20:33:54.338Z,101473.44
2023-05-28T20:36:21.861Z,101465.81
2023-05-28T20:38:50.477Z,101465.59
2023-05-28T20:41:17.053Z,101476.41
2023-05-28T20:43:43.530Z,101476.44
2023-05-28T20:46:11.019Z,101476.31
2023-05-28T20:48:37.670Z,101466.81
2023-05-28T20:51:05.026Z,101462.56
2023-05-28T20:53:31.542Z,101474.63
2023-05-28T20:55:58.353Z,101476.22
2023-05-28T20:58:33.961Z,101467.38
2023-05-28T21:01:01.342Z,101467.34
2023-05-28T21:03:27.900Z,101468.13
2023-05-28T21:05:54.445Z,101479.38
2023-05-28T21:08:21.020Z,101475.47
2023-05-28T21:10:47.547Z,101470.91
2023-05-28T21:13:14.467Z,101478.66
2023-05-28T21:15:41.037Z,101481.78
2023-05-28T21:18:07.690Z,101482.59
2023-05-28T21:20:34.557Z,101474.44
2023-05-28T21:23:01.191Z,101472.44
2023-05-28T21:25:27.638Z,101472.78
2023-05-28T21:27:55.411Z,101475.69
2023-05-28T21:30:22.107Z,101474.00
2023-05-28T21:32:48.643Z,101476.78
2023-05-28T21:35:15.365Z,101482.63
2023-05-28T21:37:42.027Z,101488.00
2023-05-28T21:40:08.975Z,101491.47
2023-05-28T21:42:35.594Z,101487.22
2023-05-28T21:45:02.118Z,101485.72
2023-05-28T21:47:28.653Z,101486.13
2023-05-28T21:49:55.154Z,101485.69
2023-05-28T21:52:25.869Z,101474.91
2023-05-28T21:54:54.636Z,101483.16
2023-05-28T21:57:21.922Z,101481.94
2023-05-28T21:59:48.579Z,101476.03
2023-05-28T22:02:15.109Z,101481.09
2023-05-28T22:04:43.375Z,101481.84
2023-05-28T22:07:10.616Z,101478.50
2023-05-28T22:09:37.129Z,101471.91
2023-05-28T22:12:05.382Z,101452.84
2023-05-28T22:14:32.022Z,101465.06
2023-05-28T22:16:58.633Z,101459.97
2023-05-28T22:19:25.382Z,101461.81
2023-05-28T22:21:51.922Z,101447.53
2023-05-28T22:24:18.358Z,101446.38
2023-05-28T22:26:44.855Z,101456.59
2023-05-28T22:29:11.394Z,101438.53
2023-05-28T22:31:37.941Z,101447.41
2023-05-28T22:34:04.498Z,101448.44
2023-05-28T22:36:31.613Z,101437.81
2023-05-28T22:38:58.116Z,101429.16
2023-05-28T22:41:24.756Z,101438.84
2023-05-28T22:43:51.390Z,101434.97
2023-05-28T22:46:17.905Z,101427.88
2023-05-28T22:48:44.410Z,101428.38
2023-05-28T22:51:11.285Z,101427.91
2023-05-28T22:53:40.977Z,101425.41
2023-05-28T22:56:13.311Z,101427.16
2023-05-28T22:58:41.298Z,101428.19
2023-05-28T23:01:08.446Z,101418.88
2023-05-28T23:03:35.182Z,101415.91
2023-05-28T23:06:01.847Z,101419.19
2023-05-28T23:08:28.301Z,101425.22
2023-05-28T23:10:54.792Z,101417.94
2023-05-28T23:13:21.590Z,101418.50
2023-05-28T23:15:48.037Z,101417.34
2023-05-28T23:18:19.117Z,101415.72
2023-05-28T23:20:47.109Z,101423.38
2023-05-28T23:23:15.292Z,101425.00
2023-05-28T23:25:42.751Z,101423.91
2023-05-28T23:28:10.204Z,101429.97
2023-05-28T23:30:37.260Z,101436.69
2023-05-28T23:33:04.514Z,101440.88
2023-05-28T23:35:31.432Z,101448.75
2023-05-28T23:37:58.060Z,101443.72
2023-05-28T23:40:24.665Z,101434.47
2023-05-28T23:42:51.205Z,101433.13
2023-05-28T23:45:18.041Z,101432.44
2023-05-28T23:47:44.651Z,101436.53
2023-05-28T23:50:11.152Z,101437.25
2023-05-28T23:52:37.580Z,101451.44
2023-05-28T23:55:04.595Z,101440.88
2023-05-28T23:57:31.112Z,101434.84
2023-05-28T23:59:57.837Z,101432.94
